createdAt,value
2018-12-21T00:00:19.555Z,16.00
2018-12-21T00:01:19.544Z,16.00
2018-12-21T00:02:19.953Z,16.00
2018-12-21T00:03:19.528Z,16.00
2018-12-21T00:04:19.516Z,16.00
2018-12-21T00:05:19.501Z,16.00
2018-12-21T00:06:19.592Z,16.00
2018-12-21T00:07:19.485Z,16.00
2018-12-21T00:08:19.612Z,16.00
2018-12-21T00:09:19.461Z,16.00
2018-12-21T00:10:19.458Z,16.00
2018-12-21T00:11:19.439Z,16.00
2018-12-21T00:12:19.430Z,16.00
2018-12-21T00:13:19.418Z,16.00
2018-12-21T00:14:19.810Z,16.00
2018-12-21T00:15:19.396Z,16.00
2018-12-21T00:16:19.391Z,16.00
2018-12-21T00:17:19.378Z,16.00
2018-12-21T00:18:19.366Z,16.00
2018-12-21T00:19:19.356Z,16.00
2018-12-21T00:20:19.469Z,16.00
2018-12-21T00:21:21.974Z,16.00
2018-12-21T00:22:19.323Z,16.00
2018-12-21T00:23:19.313Z,16.00
2018-12-21T00:24:19.305Z,16.00
2018-12-21T00:25:19.292Z,16.00
2018-12-21T00:26:19.720Z,16.00
2018-12-21T00:27:19.275Z,16.00
2018-12-21T00:28:19.262Z,16.00
2018-12-21T00:29:19.250Z,16.00
2018-12-21T00:30:19.244Z,16.00
2018-12-21T00:31:19.229Z,16.00
2018-12-21T00:32:19.338Z,16.00
2018-12-21T00:33:19.484Z,16.00
2018-12-21T00:34:19.200Z,16.00
2018-12-21T00:35:19.187Z,16.00
2018-12-21T00:36:19.177Z,16.00
2018-12-21T00:37:19.166Z,16.00
2018-12-21T00:38:19.307Z,16.00
2018-12-21T00:39:19.147Z,16.00
2018-12-21T00:40:19.423Z,16.00
2018-12-21T00:41:19.123Z,16.00
2018-12-21T00:42:19.134Z,16.00
2018-12-21T00:43:19.106Z,16.00
2018-12-21T00:44:21.189Z,16.00
2018-12-21T00:45:19.081Z,16.00
2018-12-21T00:46:19.070Z,16.00
2018-12-21T00:47:19.337Z,16.00
2018-12-21T00:48:19.050Z,16.00
2018-12-21T00:49:19.040Z,16.00
2018-12-21T00:50:19.072Z,16.00
2018-12-21T00:51:19.020Z,16.00
2018-12-21T00:52:19.013Z,16.00
2018-12-21T00:53:18.998Z,16.00
2018-12-21T00:54:19.271Z,16.00
2018-12-21T00:55:18.979Z,16.00
2018-12-21T00:56:19.008Z,16.00
2018-12-21T00:57:18.955Z,16.00
2018-12-21T00:58:18.948Z,16.00
2018-12-21T00:59:18.934Z,16.00
2018-12-21T01:00:18.930Z,16.00
2018-12-21T01:01:18.914Z,16.00
2018-12-21T01:02:18.965Z,16.00
2018-12-21T01:03:18.893Z,16.00
2018-12-21T01:04:18.882Z,16.00
2018-12-21T01:05:18.872Z,16.00
2018-12-21T01:06:18.861Z,16.00
2018-12-21T01:07:19.134Z,16.00
2018-12-21T01:08:18.886Z,16.00
2018-12-21T01:09:18.831Z,16.00
2018-12-21T01:10:18.819Z,16.00
2018-12-21T01:11:18.808Z,16.00
2018-12-21T01:12:18.798Z,16.00
2018-12-21T01:13:18.799Z,16.00
2018-12-21T01:14:19.101Z,16.00
2018-12-21T01:15:18.768Z,16.00
2018-12-21T01:16:18.759Z,16.00
2018-12-21T01:17:18.747Z,16.00
2018-12-21T01:18:18.735Z,16.00
2018-12-21T01:19:18.729Z,16.00
2018-12-21T01:20:18.786Z,16.00
2018-12-21T01:21:19.068Z,16.00
2018-12-21T01:22:18.693Z,16.00
2018-12-21T01:23:18.684Z,16.00
2018-12-21T01:24:18.672Z,16.00
2018-12-21T01:25:18.662Z,16.00
2018-12-21T01:26:18.692Z,16.00
2018-12-21T01:27:18.640Z,16.00
2018-12-21T01:28:18.928Z,16.00
2018-12-21T01:29:18.620Z,16.00
2018-12-21T01:30:18.609Z,16.00
2018-12-21T01:31:18.600Z,16.00
2018-12-21T01:32:18.713Z,16.00
2018-12-21T01:33:18.578Z,16.00
2018-12-21T01:34:18.570Z,16.00
2018-12-21T01:35:18.850Z,16.00
2018-12-21T01:36:18.547Z,16.00
2018-12-21T01:37:18.541Z,16.00
2018-12-21T01:38:18.598Z,16.00
2018-12-21T01:39:18.517Z,16.00
2018-12-21T01:40:18.505Z,16.00
2018-12-21T01:41:18.495Z,16.00
2018-12-21T01:42:18.768Z,16.00
2018-12-21T01:43:18.474Z,16.00
2018-12-21T01:44:18.506Z,16.00
2018-12-21T01:45:18.458Z,16.00
2018-12-21T01:46:18.444Z,16.00
2018-12-21T01:47:18.438Z,16.00
2018-12-21T01:48:18.422Z,16.00
2018-12-21T01:49:18.693Z,16.00
2018-12-21T01:50:18.453Z,16.00
2018-12-21T01:51:18.394Z,16.00
2018-12-21T01:52:18.383Z,16.00
2018-12-21T01:53:18.375Z,16.00
2018-12-21T01:54:18.363Z,16.00
2018-12-21T01:55:18.352Z,16.00
2018-12-21T01:56:18.514Z,16.00
2018-12-21T01:57:18.331Z,16.00
2018-12-21T01:58:18.322Z,16.00
2018-12-21T01:59:18.312Z,16.00
2018-12-21T02:00:18.300Z,16.00
2018-12-21T02:01:18.292Z,16.00
2018-12-21T02:02:18.600Z,16.00
2018-12-21T02:03:18.271Z,16.00
2018-12-21T02:04:18.259Z,16.00
2018-12-21T02:05:18.253Z,16.00
2018-12-21T02:06:18.240Z,16.00
2018-12-21T02:07:18.231Z,16.00
2018-12-21T02:08:18.259Z,16.00
2018-12-21T02:09:18.208Z,16.00
2018-12-21T02:10:18.201Z,16.00
2018-12-21T02:11:18.188Z,16.00
2018-12-21T02:12:18.179Z,16.00
2018-12-21T02:13:18.168Z,16.00
2018-12-21T02:14:18.656Z,16.00
2018-12-21T02:15:18.146Z,16.00
2018-12-21T02:16:18.136Z,16.00
2018-12-21T02:17:18.126Z,16.00
2018-12-21T02:18:18.630Z,16.00
2018-12-21T02:19:18.106Z,16.00
2018-12-21T02:20:18.170Z,16.00
2018-12-21T02:21:18.085Z,16.00
2018-12-21T02:22:18.074Z,16.00
2018-12-21T02:23:18.065Z,16.00
2018-12-21T02:24:18.053Z,16.00
2018-12-21T02:25:18.043Z,16.00
2018-12-21T02:26:18.350Z,16.00
2018-12-21T02:27:18.022Z,16.00
2018-12-21T02:28:18.012Z,16.00
2018-12-21T02:29:18.002Z,16.00
2018-12-21T02:30:17.994Z,16.00
2018-12-21T02:31:17.985Z,16.00
2018-12-21T02:32:18.380Z,16.00
2018-12-21T02:33:18.248Z,16.00
2018-12-21T02:34:17.957Z,16.00
2018-12-21T02:35:17.943Z,16.00
2018-12-21T02:36:17.934Z,16.00
2018-12-21T02:37:17.925Z,16.00
2018-12-21T02:38:17.955Z,16.00
2018-12-21T02:39:17.899Z,16.00
2018-12-21T02:40:18.170Z,16.00
2018-12-21T02:41:17.877Z,16.00
2018-12-21T02:42:17.901Z,16.00
2018-12-21T02:43:17.862Z,16.00
2018-12-21T02:44:17.887Z,16.00
2018-12-21T02:45:17.838Z,16.00
2018-12-21T02:46:17.827Z,16.00
2018-12-21T02:47:18.117Z,16.00
2018-12-21T02:48:17.812Z,16.00
2018-12-21T02:49:17.806Z,16.00
2018-12-21T02:50:17.854Z,16.00
2018-12-21T02:51:17.775Z,16.00
2018-12-21T02:52:17.764Z,16.00
2018-12-21T02:53:17.753Z,16.00
2018-12-21T02:54:18.041Z,16.00
2018-12-21T02:55:17.735Z,16.00
2018-12-21T02:56:17.762Z,16.00
2018-12-21T02:57:17.712Z,16.00
2018-12-21T02:58:17.705Z,16.00
2018-12-21T02:59:17.692Z,16.00
2018-12-21T03:01:34.159Z,16.00
2018-12-21T03:02:33.827Z,16.00
2018-12-21T03:03:33.821Z,16.00
2018-12-21T03:04:33.810Z,16.00
2018-12-21T03:05:33.796Z,16.00
2018-12-21T03:06:33.810Z,16.00
2018-12-21T03:07:34.090Z,16.00
2018-12-21T03:08:33.771Z,16.00
2018-12-21T03:09:33.755Z,16.00
2018-12-21T03:10:33.766Z,16.00
2018-12-21T03:11:33.735Z,16.00
2018-12-21T03:12:33.728Z,16.00
2018-12-21T03:13:34.042Z,16.00
2018-12-21T03:14:33.704Z,16.00
2018-12-21T03:15:33.695Z,16.00
2018-12-21T03:16:33.684Z,16.00
2018-12-21T03:17:33.685Z,16.00
2018-12-21T03:18:33.663Z,16.00
2018-12-21T03:19:33.697Z,16.00
2018-12-21T03:20:33.939Z,16.00
2018-12-21T03:21:33.634Z,16.00
2018-12-21T03:22:33.635Z,16.00
2018-12-21T03:23:33.610Z,16.00
2018-12-21T03:24:33.600Z,16.00
2018-12-21T03:25:34.268Z,16.00
2018-12-21T03:26:33.582Z,16.00
2018-12-21T03:27:33.853Z,16.00
2018-12-21T03:28:33.558Z,16.00
2018-12-21T03:29:33.549Z,16.00
2018-12-21T03:30:33.538Z,16.00
2018-12-21T03:31:33.579Z,16.00
2018-12-21T03:32:33.519Z,16.00
2018-12-21T03:33:33.507Z,16.00
2018-12-21T03:34:33.783Z,16.00
2018-12-21T03:35:33.491Z,16.00
2018-12-21T03:36:33.478Z,16.00
2018-12-21T03:37:33.505Z,16.00
2018-12-21T03:38:33.454Z,16.00
2018-12-21T03:39:33.446Z,16.00
2018-12-21T03:40:33.435Z,16.00
2018-12-21T03:41:33.913Z,16.00
2018-12-21T03:42:33.415Z,16.00
2018-12-21T03:43:33.477Z,16.00
2018-12-21T03:44:33.394Z,16.00
2018-12-21T03:45:33.382Z,16.00
2018-12-21T03:46:33.375Z,16.00
2018-12-21T03:47:33.363Z,16.00
2018-12-21T03:48:33.654Z,16.00
2018-12-21T03:49:33.383Z,16.00
2018-12-21T03:50:33.332Z,16.00
2018-12-21T03:51:33.348Z,16.00
2018-12-21T03:52:33.310Z,16.00
2018-12-21T03:53:33.299Z,16.00
2018-12-21T03:54:33.293Z,16.00
2018-12-21T03:55:33.603Z,16.00
2018-12-21T03:56:33.268Z,16.00
2018-12-21T03:57:33.261Z,16.00
2018-12-21T03:58:33.250Z,16.00
2018-12-21T03:59:33.241Z,16.00
2018-12-21T04:00:33.228Z,24.00
2018-12-21T04:01:33.799Z,24.00
2018-12-21T04:02:33.208Z,24.00
2018-12-21T04:03:33.196Z,24.00
2018-12-21T04:04:33.187Z,24.00
2018-12-21T04:05:33.176Z,24.00
2018-12-21T04:06:33.166Z,24.00
2018-12-21T04:07:33.198Z,24.00
2018-12-21T04:08:33.423Z,24.00
2018-12-21T04:09:33.135Z,24.00
2018-12-21T04:10:33.124Z,24.00
2018-12-21T04:11:33.113Z,24.00
2018-12-21T04:12:33.105Z,24.00
2018-12-21T04:13:33.134Z,24.00
2018-12-21T04:14:33.085Z,24.00
2018-12-21T04:15:33.359Z,20.00
2018-12-21T04:16:33.064Z,24.00
2018-12-21T04:17:33.057Z,24.00
2018-12-21T04:18:33.043Z,24.00
2018-12-21T04:19:33.278Z,24.00
2018-12-21T04:20:33.025Z,24.00
2018-12-21T04:21:33.014Z,24.00
2018-12-21T04:22:34.211Z,24.00
2018-12-21T04:23:32.991Z,24.00
2018-12-21T04:24:32.986Z,24.00
2018-12-21T04:25:33.011Z,24.00
2018-12-21T04:26:32.960Z,24.00
2018-12-21T04:27:32.951Z,24.00
2018-12-21T04:28:32.939Z,24.00
2018-12-21T04:29:32.927Z,24.00
2018-12-21T04:30:32.925Z,24.00
2018-12-21T04:31:32.944Z,24.00
2018-12-21T04:32:32.897Z,24.00
2018-12-21T04:33:32.887Z,24.00
2018-12-21T04:34:32.875Z,24.00
2018-12-21T04:35:33.147Z,24.00
2018-12-21T04:36:32.858Z,24.00
2018-12-21T04:37:32.901Z,24.00
2018-12-21T04:38:32.835Z,24.00
2018-12-21T04:39:32.846Z,24.00
2018-12-21T04:40:32.819Z,24.00
2018-12-21T04:41:32.803Z,24.00
2018-12-21T04:42:33.072Z,24.00
2018-12-21T04:43:32.822Z,24.00
2018-12-21T04:44:32.771Z,24.00
2018-12-21T04:45:32.762Z,24.00
2018-12-21T04:46:32.754Z,24.00
2018-12-21T04:47:32.741Z,32.00
2018-12-21T04:48:32.731Z,24.00
2018-12-21T04:49:32.791Z,24.00
2018-12-21T04:50:32.712Z,24.00
2018-12-21T04:51:32.704Z,24.00
2018-12-21T04:52:32.693Z,24.00
2018-12-21T04:53:32.679Z,24.00
2018-12-21T04:54:32.674Z,24.00
2018-12-21T04:55:32.992Z,24.00
2018-12-21T04:56:32.647Z,24.00
2018-12-21T04:57:32.644Z,24.00
2018-12-21T04:58:32.631Z,24.00
2018-12-21T04:59:32.623Z,24.00
2018-12-21T05:00:32.628Z,24.00
2018-12-21T05:01:32.642Z,24.00
2018-12-21T05:02:32.586Z,24.00
2018-12-21T05:03:32.590Z,24.00
2018-12-21T05:04:32.567Z,24.00
2018-12-21T05:05:32.558Z,24.00
2018-12-21T05:06:32.544Z,24.00
2018-12-21T05:07:32.889Z,24.00
2018-12-21T05:08:32.691Z,24.00
2018-12-21T05:09:32.515Z,24.00
2018-12-21T05:10:32.504Z,24.00
2018-12-21T05:11:32.494Z,24.00
2018-12-21T05:12:32.482Z,24.00
2018-12-21T05:13:32.528Z,24.00
2018-12-21T05:14:32.463Z,24.00
2018-12-21T05:15:32.465Z,24.00
2018-12-21T05:16:32.444Z,24.00
2018-12-21T05:17:32.436Z,24.00
2018-12-21T05:18:32.422Z,24.00
2018-12-21T05:19:32.872Z,24.00
2018-12-21T05:20:32.421Z,24.00
2018-12-21T05:21:32.393Z,24.00
2018-12-21T05:22:32.381Z,24.00
2018-12-21T05:23:32.373Z,24.00
2018-12-21T05:24:32.359Z,24.00
2018-12-21T05:25:32.386Z,24.00
2018-12-21T05:26:32.645Z,24.00
2018-12-21T05:27:32.329Z,24.00
2018-12-21T05:28:32.317Z,24.00
2018-12-21T05:29:32.306Z,24.00
2018-12-21T05:30:32.297Z,24.00
2018-12-21T05:31:32.588Z,20.00
2018-12-21T05:32:32.275Z,24.00
2018-12-21T05:33:32.278Z,24.00
2018-12-21T05:34:32.255Z,20.00
2018-12-21T05:35:32.250Z,24.00
2018-12-21T05:36:32.235Z,24.00
2018-12-21T05:37:32.271Z,24.00
2018-12-21T05:38:32.223Z,24.00
2018-12-21T05:39:32.484Z,24.00
2018-12-21T05:40:32.192Z,24.00
2018-12-21T05:41:32.183Z,24.00
2018-12-21T05:42:32.176Z,24.00
2018-12-21T05:43:32.211Z,24.00
2018-12-21T05:44:32.150Z,24.00
2018-12-21T05:45:32.142Z,24.00
2018-12-21T05:46:32.648Z,24.00
2018-12-21T05:47:32.374Z,24.00
2018-12-21T05:48:32.138Z,24.00
2018-12-21T05:49:32.562Z,24.00
2018-12-21T05:50:32.246Z,24.00
2018-12-21T05:51:32.161Z,24.00
2018-12-21T05:52:32.067Z,24.00
2018-12-21T05:53:32.541Z,24.00
2018-12-21T05:54:32.049Z,24.00
2018-12-21T05:55:32.074Z,24.00
2018-12-21T05:56:32.026Z,24.00
2018-12-21T05:57:32.019Z,24.00
2018-12-21T05:58:32.007Z,24.00
2018-12-21T05:59:31.999Z,24.00
2018-12-21T06:00:31.997Z,24.00
2018-12-21T06:01:32.014Z,24.00
2018-12-21T06:02:31.975Z,24.00
2018-12-21T06:03:31.954Z,24.00
2018-12-21T06:04:31.945Z,24.00
2018-12-21T06:05:31.942Z,24.00
2018-12-21T06:06:32.959Z,24.00
2018-12-21T06:07:33.912Z,24.00
2018-12-21T06:08:31.903Z,24.00
2018-12-21T06:09:31.892Z,24.00
2018-12-21T06:10:31.888Z,24.00
2018-12-21T06:11:31.873Z,24.00
2018-12-21T06:12:31.861Z,24.00
2018-12-21T06:13:32.403Z,24.00
2018-12-21T06:14:31.839Z,24.00
2018-12-21T06:15:31.830Z,24.00
2018-12-21T06:16:31.819Z,24.00
2018-12-21T06:17:31.808Z,24.00
2018-12-21T06:18:31.797Z,24.00
2018-12-21T06:19:31.825Z,24.00
2018-12-21T06:20:33.208Z,24.00
2018-12-21T06:21:31.766Z,24.00
2018-12-21T06:22:31.758Z,24.00
2018-12-21T06:23:31.748Z,24.00
2018-12-21T06:24:31.735Z,24.00
2018-12-21T06:25:32.588Z,24.00
2018-12-21T06:26:31.718Z,24.00
2018-12-21T06:27:31.725Z,24.00
2018-12-21T06:28:31.702Z,24.00
2018-12-21T06:29:31.683Z,24.00
2018-12-21T06:30:31.672Z,24.00
2018-12-21T06:31:32.037Z,24.00
2018-12-21T06:32:31.650Z,24.00
2018-12-21T06:33:31.661Z,24.00
2018-12-21T06:34:31.631Z,24.00
2018-12-21T06:35:31.618Z,24.00
2018-12-21T06:36:31.608Z,24.00
2018-12-21T06:37:31.640Z,24.00
2018-12-21T06:38:31.600Z,24.00
2018-12-21T06:39:31.577Z,24.00
2018-12-21T06:40:31.570Z,24.00
2018-12-21T06:41:31.555Z,24.00
2018-12-21T06:42:31.547Z,24.00
2018-12-21T06:43:32.134Z,24.00
2018-12-21T06:44:31.527Z,24.00
2018-12-21T06:45:31.514Z,24.00
2018-12-21T06:46:31.506Z,24.00
2018-12-21T06:47:31.492Z,24.00
2018-12-21T06:48:31.494Z,24.00
2018-12-21T06:49:31.509Z,24.00
2018-12-21T06:50:31.760Z,24.00
2018-12-21T06:51:31.456Z,24.00
2018-12-21T06:52:31.446Z,24.00
2018-12-21T06:53:31.429Z,24.00
2018-12-21T06:54:31.420Z,24.00
2018-12-21T06:55:31.450Z,24.00
2018-12-21T06:56:31.398Z,24.00
2018-12-21T06:57:31.729Z,24.00
2018-12-21T06:58:31.379Z,24.00
2018-12-21T06:59:31.368Z,20.00
2018-12-21T07:00:31.360Z,20.00
2018-12-21T07:01:31.410Z,28.00
2018-12-21T07:02:31.336Z,24.00
2018-12-21T07:03:31.325Z,20.00
2018-12-21T07:04:31.318Z,20.00
2018-12-21T07:05:31.305Z,20.00
2018-12-21T07:06:31.294Z,24.00
2018-12-21T07:07:31.324Z,24.00
2018-12-21T07:08:31.277Z,24.00
2018-12-21T07:09:31.267Z,24.00
2018-12-21T07:10:31.280Z,24.00
2018-12-21T07:11:31.260Z,24.00
2018-12-21T07:12:31.231Z,24.00
2018-12-21T07:13:31.260Z,24.00
2018-12-21T07:14:31.212Z,28.00
2018-12-21T07:15:31.200Z,28.00
2018-12-21T07:16:31.470Z,24.00
2018-12-21T07:17:31.181Z,24.00
2018-12-21T07:18:31.170Z,28.00
2018-12-21T07:19:31.242Z,28.00
2018-12-21T07:20:31.148Z,28.00
2018-12-21T07:21:31.156Z,28.00
2018-12-21T07:22:31.136Z,28.00
2018-12-21T07:23:31.121Z,32.00
2018-12-21T07:24:31.105Z,32.00
2018-12-21T07:25:31.140Z,32.00
2018-12-21T07:26:31.090Z,36.00
2018-12-21T07:27:31.098Z,36.00
2018-12-21T07:28:31.494Z,40.00
2018-12-21T07:29:31.059Z,28.00
2018-12-21T07:30:31.049Z,24.00
2018-12-21T07:31:31.082Z,24.00
2018-12-21T07:32:31.022Z,28.00
2018-12-21T07:33:31.013Z,28.00
2018-12-21T07:34:31.003Z,36.00
2018-12-21T07:35:30.999Z,40.00
2018-12-21T07:36:30.983Z,44.00
2018-12-21T07:37:31.020Z,44.00
2018-12-21T07:38:30.980Z,44.00
2018-12-21T07:39:32.353Z,52.00
2018-12-21T07:40:30.946Z,56.00
2018-12-21T07:41:30.942Z,56.00
2018-12-21T07:42:31.655Z,60.00
2018-12-21T07:43:31.061Z,64.00
2018-12-21T07:44:31.594Z,64.00
2018-12-21T07:45:31.104Z,68.00
2018-12-21T07:46:31.362Z,68.00
2018-12-21T07:47:32.149Z,76.00
2018-12-21T07:48:31.181Z,84.00
2018-12-21T07:49:30.894Z,92.00
2018-12-21T07:50:31.546Z,100.00
2018-12-21T07:51:30.839Z,108.00
2018-12-21T07:52:30.821Z,116.00
2018-12-21T07:53:35.875Z,120.00
2018-12-21T07:54:32.491Z,116.00
2018-12-21T07:55:30.959Z,116.00
2018-12-21T07:56:30.777Z,116.00
2018-12-21T07:57:30.792Z,124.00
2018-12-21T07:58:30.853Z,132.00
2018-12-21T07:59:30.827Z,136.00
2018-12-21T08:00:31.451Z,136.00
2018-12-21T08:01:30.887Z,144.00
2018-12-21T08:02:30.854Z,148.00
2018-12-21T08:03:31.577Z,152.00
2018-12-21T08:04:30.705Z,156.00
2018-12-21T08:05:30.699Z,160.00
2018-12-21T08:06:30.932Z,160.00
2018-12-21T08:07:30.662Z,156.00
2018-12-21T08:08:30.651Z,156.00
2018-12-21T08:09:30.640Z,160.00
2018-12-21T08:10:30.635Z,164.00
2018-12-21T08:11:30.623Z,168.00
2018-12-21T08:12:30.681Z,172.00
2018-12-21T08:13:31.089Z,172.00
2018-12-21T08:14:30.591Z,180.00
2018-12-21T08:15:30.634Z,192.00
2018-12-21T08:16:30.567Z,208.00
2018-12-21T08:17:30.583Z,220.00
2018-12-21T08:18:30.589Z,228.00
2018-12-21T08:19:32.186Z,228.00
2018-12-21T08:20:30.913Z,220.00
2018-12-21T08:21:30.517Z,216.00
2018-12-21T08:22:30.505Z,232.00
2018-12-21T08:23:30.665Z,236.00
2018-12-21T08:24:30.528Z,236.00
2018-12-21T08:25:30.546Z,244.00
2018-12-21T08:26:30.638Z,240.00
2018-12-21T08:27:30.922Z,244.00
2018-12-21T08:28:30.451Z,244.00
2018-12-21T08:29:30.434Z,240.00
2018-12-21T08:30:30.626Z,244.00
2018-12-21T08:31:30.426Z,240.00
2018-12-21T08:32:30.401Z,240.00
2018-12-21T08:33:30.391Z,240.00
2018-12-21T08:34:30.386Z,228.00
2018-12-21T08:35:30.372Z,216.00
2018-12-21T08:36:30.400Z,224.00
2018-12-21T08:37:30.356Z,232.00
2018-12-21T08:38:30.447Z,220.00
2018-12-21T08:39:30.330Z,216.00
2018-12-21T08:40:30.320Z,220.00
2018-12-21T08:41:30.313Z,216.00
2018-12-21T08:42:30.337Z,216.00
2018-12-21T08:43:30.288Z,232.00
2018-12-21T08:44:30.278Z,224.00
2018-12-21T08:45:30.268Z,220.00
2018-12-21T08:46:30.693Z,220.00
2018-12-21T08:47:30.287Z,224.00
2018-12-21T08:48:30.305Z,232.00
2018-12-21T08:49:32.293Z,228.00
2018-12-21T08:50:30.217Z,236.00
2018-12-21T08:51:30.607Z,252.00
2018-12-21T08:52:30.293Z,264.00
2018-12-21T08:53:30.291Z,268.00
2018-12-21T08:54:30.268Z,284.00
2018-12-21T08:55:30.314Z,284.00
2018-12-21T08:56:30.169Z,292.00
2018-12-21T08:57:30.148Z,304.00
2018-12-21T08:58:30.586Z,304.00
2018-12-21T08:59:31.164Z,320.00
2018-12-21T09:00:30.154Z,320.00
2018-12-21T09:01:30.104Z,332.00
2018-12-21T09:02:30.094Z,320.00
2018-12-21T09:03:31.017Z,304.00
2018-12-21T09:04:32.360Z,280.00
2018-12-21T09:05:31.139Z,304.00
2018-12-21T09:06:30.113Z,308.00
2018-12-21T09:07:30.109Z,352.00
2018-12-21T09:08:30.090Z,384.00
2018-12-21T09:09:30.183Z,448.00
2018-12-21T09:10:30.376Z,404.00
2018-12-21T09:11:30.001Z,416.00
2018-12-21T09:12:30.658Z,396.00
2018-12-21T09:13:30.521Z,412.00
2018-12-21T09:14:30.114Z,404.00
2018-12-21T09:15:30.410Z,392.00
2018-12-21T09:16:30.034Z,372.00
2018-12-21T09:17:30.179Z,356.00
2018-12-21T09:18:30.204Z,360.00
2018-12-21T09:19:29.917Z,404.00
2018-12-21T09:20:30.023Z,440.00
2018-12-21T09:21:29.902Z,492.00
2018-12-21T09:22:30.037Z,552.00
2018-12-21T09:23:29.999Z,568.00
2018-12-21T09:24:30.674Z,576.00
2018-12-21T09:25:30.423Z,596.00
2018-12-21T09:26:29.974Z,604.00
2018-12-21T09:27:29.842Z,584.00
2018-12-21T09:28:30.110Z,580.00
2018-12-21T09:29:29.999Z,604.00
2018-12-21T09:30:29.852Z,636.00
2018-12-21T09:31:30.083Z,672.00
2018-12-21T09:32:29.884Z,676.00
2018-12-21T09:33:29.955Z,664.00
2018-12-21T09:34:30.045Z,632.00
2018-12-21T09:35:29.874Z,604.00
2018-12-21T09:36:30.202Z,576.00
2018-12-21T09:37:29.873Z,548.00
2018-12-21T09:38:30.986Z,524.00
2018-12-21T09:39:30.320Z,492.00
2018-12-21T09:40:29.707Z,484.00
2018-12-21T09:41:29.694Z,504.00
2018-12-21T09:42:29.875Z,536.00
2018-12-21T09:43:30.975Z,564.00
2018-12-21T09:44:30.473Z,596.00
2018-12-21T09:45:32.159Z,616.00
2018-12-21T09:46:29.817Z,640.00
2018-12-21T09:47:29.830Z,636.00
2018-12-21T09:48:30.318Z,636.00
2018-12-21T09:49:29.609Z,620.00
2018-12-21T09:50:29.650Z,592.00
2018-12-21T09:51:29.588Z,568.00
2018-12-21T09:52:29.584Z,536.00
2018-12-21T09:53:29.570Z,504.00
2018-12-21T09:54:29.605Z,464.00
2018-12-21T09:55:29.751Z,472.00
2018-12-21T09:56:29.967Z,464.00
2018-12-21T09:57:29.849Z,452.00
2018-12-21T09:58:30.241Z,456.00
2018-12-21T09:59:29.670Z,460.00
2018-12-21T10:00:30.369Z,464.00
2018-12-21T10:01:29.723Z,472.00
2018-12-21T10:02:35.772Z,472.00
2018-12-21T10:03:30.815Z,476.00
2018-12-21T10:04:29.560Z,492.00
2018-12-21T10:05:29.517Z,516.00
2018-12-21T10:06:30.046Z,536.00
2018-12-21T10:07:30.100Z,560.00
2018-12-21T10:08:29.655Z,592.00
2018-12-21T10:09:29.486Z,604.00
2018-12-21T10:10:29.587Z,616.00
2018-12-21T10:11:29.587Z,660.00
2018-12-21T10:12:29.839Z,748.00
2018-12-21T10:13:29.614Z,816.00
2018-12-21T10:14:29.984Z,844.00
2018-12-21T10:15:29.367Z,844.00
2018-12-21T10:16:29.686Z,860.00
2018-12-21T10:17:29.657Z,828.00
2018-12-21T10:18:29.871Z,748.00
2018-12-21T10:19:29.383Z,696.00
2018-12-21T10:20:29.474Z,652.00
2018-12-21T10:21:29.788Z,584.00
2018-12-21T10:22:29.410Z,504.00
2018-12-21T10:23:29.439Z,472.00
2018-12-21T10:24:29.310Z,432.00
2018-12-21T10:25:29.429Z,424.00
2018-12-21T10:26:29.306Z,416.00
2018-12-21T10:27:29.337Z,424.00
2018-12-21T10:28:29.605Z,428.00
2018-12-21T10:29:29.367Z,416.00
2018-12-21T10:30:29.762Z,428.00
2018-12-21T10:31:29.334Z,444.00
2018-12-21T10:32:29.473Z,496.00
2018-12-21T10:33:29.305Z,540.00
2018-12-21T10:34:29.324Z,564.00
2018-12-21T10:35:29.209Z,560.00
2018-12-21T10:36:29.785Z,536.00
2018-12-21T10:37:29.389Z,548.00
2018-12-21T10:38:29.209Z,604.00
2018-12-21T10:39:29.502Z,724.00
2018-12-21T10:40:29.740Z,812.00
2018-12-21T10:41:29.086Z,872.00
2018-12-21T10:42:30.059Z,924.00
2018-12-21T10:43:29.343Z,964.00
2018-12-21T10:44:30.377Z,972.00
2018-12-21T10:45:29.085Z,980.00
2018-12-21T10:46:29.047Z,960.00
2018-12-21T10:47:29.223Z,892.00
2018-12-21T10:48:29.843Z,860.00
2018-12-21T10:49:32.034Z,840.00
2018-12-21T10:50:28.986Z,844.00
2018-12-21T10:51:29.138Z,864.00
2018-12-21T10:52:29.843Z,856.00
2018-12-21T10:53:28.948Z,808.00
2018-12-21T10:54:29.108Z,800.00
2018-12-21T10:55:29.513Z,776.00
2018-12-21T10:56:29.563Z,744.00
2018-12-21T10:57:28.911Z,788.00
2018-12-21T10:58:29.547Z,792.00
2018-12-21T10:59:28.893Z,764.00
2018-12-21T11:00:28.921Z,744.00
2018-12-21T11:01:28.877Z,740.00
2018-12-21T11:02:28.861Z,720.00
2018-12-21T11:03:28.940Z,712.00
2018-12-21T11:04:28.839Z,720.00
2018-12-21T11:05:28.829Z,780.00
2018-12-21T11:06:29.270Z,848.00
2018-12-21T11:07:29.702Z,852.00
2018-12-21T11:08:28.876Z,808.00
2018-12-21T11:09:28.921Z,792.00
2018-12-21T11:10:28.808Z,800.00
2018-12-21T11:11:28.793Z,832.00
2018-12-21T11:12:28.866Z,812.00
2018-12-21T11:13:28.747Z,788.00
2018-12-21T11:14:29.470Z,748.00
2018-12-21T11:15:28.882Z,672.00
2018-12-21T11:16:29.241Z,700.00
2018-12-21T11:17:28.706Z,760.00
2018-12-21T11:18:29.236Z,808.00
2018-12-21T11:19:29.036Z,876.00
2018-12-21T11:20:29.463Z,828.00
2018-12-21T11:21:28.675Z,740.00
2018-12-21T11:22:28.664Z,688.00
2018-12-21T11:23:28.771Z,716.00
2018-12-21T11:24:35.474Z,776.00
2018-12-21T11:25:29.713Z,780.00
2018-12-21T11:26:28.652Z,784.00
2018-12-21T11:27:29.567Z,756.00
2018-12-21T11:28:28.882Z,740.00
2018-12-21T11:29:28.775Z,764.00
2018-12-21T11:30:30.704Z,784.00
2018-12-21T11:31:28.669Z,800.00
2018-12-21T11:32:28.674Z,748.00
2018-12-21T11:33:28.730Z,648.00
2018-12-21T11:34:29.214Z,568.00
2018-12-21T11:35:29.570Z,556.00
2018-12-21T11:36:29.017Z,556.00
2018-12-21T11:37:28.824Z,536.00
2018-12-21T11:38:29.792Z,492.00
2018-12-21T11:39:30.055Z,512.00
2018-12-21T11:40:28.705Z,496.00
2018-12-21T11:41:28.988Z,456.00
2018-12-21T11:42:29.783Z,412.00
2018-12-21T11:43:28.809Z,416.00
2018-12-21T11:44:28.594Z,440.00
2018-12-21T11:45:29.537Z,508.00
2018-12-21T11:46:28.832Z,504.00
2018-12-21T11:47:28.477Z,496.00
2018-12-21T11:48:29.130Z,524.00
2018-12-21T11:49:28.647Z,468.00
2018-12-21T11:50:28.522Z,464.00
2018-12-21T11:51:28.548Z,524.00
2018-12-21T11:52:28.599Z,544.00
2018-12-21T11:53:28.611Z,540.00
2018-12-21T11:54:28.772Z,504.00
2018-12-21T11:55:28.426Z,512.00
2018-12-21T11:56:28.517Z,576.00
2018-12-21T11:57:28.524Z,596.00
2018-12-21T11:58:28.343Z,728.00
2018-12-21T11:59:29.234Z,748.00
2018-12-21T12:00:28.932Z,848.00
2018-12-21T12:01:28.268Z,872.00
2018-12-21T12:02:28.272Z,824.00
2018-12-21T12:03:28.309Z,768.00
2018-12-21T12:04:28.448Z,696.00
2018-12-21T12:05:28.232Z,772.00
2018-12-21T12:06:28.713Z,712.00
2018-12-21T12:07:28.461Z,716.00
2018-12-21T12:08:28.202Z,732.00
2018-12-21T12:09:28.228Z,788.00
2018-12-21T12:10:28.510Z,824.00
2018-12-21T12:11:28.448Z,844.00
2018-12-21T12:12:29.336Z,776.00
2018-12-21T12:13:29.593Z,856.00
2018-12-21T12:14:29.080Z,860.00
2018-12-21T12:15:29.412Z,912.00
2018-12-21T12:16:29.396Z,1004.00
2018-12-21T12:17:30.500Z,1016.00
2018-12-21T12:18:28.291Z,1044.00
2018-12-21T12:19:28.082Z,1016.00
2018-12-21T12:20:28.253Z,1080.00
2018-12-21T12:21:28.400Z,1124.00
2018-12-21T12:22:28.164Z,1036.00
2018-12-21T12:23:28.495Z,1036.00
2018-12-21T12:24:28.687Z,928.00
2018-12-21T12:25:28.072Z,752.00
2018-12-21T12:26:28.484Z,772.00
2018-12-21T12:27:28.254Z,856.00
2018-12-21T12:28:28.004Z,752.00
2018-12-21T12:29:28.178Z,720.00
2018-12-21T12:30:28.077Z,788.00
2018-12-21T12:31:28.673Z,968.00
2018-12-21T12:32:28.008Z,1052.00
2018-12-21T12:33:28.016Z,1176.00
2018-12-21T12:34:27.998Z,1176.00
2018-12-21T12:35:29.156Z,1084.00
2018-12-21T12:36:29.174Z,1076.00
2018-12-21T12:37:27.880Z,1064.00
2018-12-21T12:38:28.198Z,1008.00
2018-12-21T12:39:29.453Z,920.00
2018-12-21T12:40:27.994Z,752.00
2018-12-21T12:41:28.046Z,748.00
2018-12-21T12:42:27.948Z,728.00
2018-12-21T12:43:28.023Z,856.00